sensor_id;sensor_type;location;lat;lon;timestamp;P1;P2;P0
56069;PMS5003;41944;52.078;-0.058;2024-03-02T00:00:37;29;18;
56069;PMS5003;41944;52.078;-0.058;2024-03-02T00:03:04;41;26;
56069;PMS5003;41944;52.078;-0.058;2024-03-02T00:05:33;35;22;
56069;PMS5003;41944;52.078;-0.058;2024-03-02T00:08:00;29;23;
56069;PMS5003;41944;52.078;-0.058;2024-03-02T00:10:31;7;7;
56069;PMS5003;41944;52.078;-0.058;2024-03-02T00:13:03;10;8;
56069;PMS5003;41944;52.078;-0.058;2024-03-02T00:15:36;11;7;
56069;PMS5003;41944;52.078;-0.058;2024-03-02T00:18:07;15;14;
56069;PMS5003;41944;52.078;-0.058;2024-03-02T00:20:36;8;8;
56069;PMS5003;41944;52.078;-0.058;2024-03-02T00:23:04;5;5;
56069;PMS5003;41944;52.078;-0.058;2024-03-02T00:25:40;7;6;
56069;PMS5003;41944;52.078;-0.058;2024-03-02T00:28:13;9;8;
56069;PMS5003;41944;52.078;-0.058;2024-03-02T00:30:49;16;14;
56069;PMS5003;41944;52.078;-0.058;2024-03-02T00:33:19;10;8;
56069;PMS5003;41944;52.078;-0.058;2024-03-02T00:35:46;10;10;
56069;PMS5003;41944;52.078;-0.058;2024-03-02T00:38:13;10;9;
56069;PMS5003;41944;52.078;-0.058;2024-03-02T00:40:41;9;8;
56069;PMS5003;41944;52.078;-0.058;2024-03-02T00:43:11;15;11;
56069;PMS5003;41944;52.078;-0.058;2024-03-02T00:46:04;12;10;
56069;PMS5003;41944;52.078;-0.058;2024-03-02T00:48:32;9;9;
56069;PMS5003;41944;52.078;-0.058;2024-03-02T00:50:59;9;6;
56069;PMS5003;41944;52.078;-0.058;2024-03-02T00:53:27;8;8;
56069;PMS5003;41944;52.078;-0.058;2024-03-02T00:55:54;8;7;
56069;PMS5003;41944;52.078;-0.058;2024-03-02T00:58:21;10;9;
56069;PMS5003;41944;52.078;-0.058;2024-03-02T01:00:48;11;9;
56069;PMS5003;41944;52.078;-0.058;2024-03-02T01:03:15;8;7;
56069;PMS5003;41944;52.078;-0.058;2024-03-02T01:05:42;9;9;
56069;PMS5003;41944;52.078;-0.058;2024-03-02T01:08:09;9;9;
56069;PMS5003;41944;52.078;-0.058;2024-03-02T01:10:37;6;6;
56069;PMS5003;41944;52.078;-0.058;2024-03-02T01:13:04;6;6;
56069;PMS5003;41944;52.078;-0.058;2024-03-02T01:15:31;4;4;
56069;PMS5003;41944;52.078;-0.058;2024-03-02T01:17:58;7;5;
56069;PMS5003;41944;52.078;-0.058;2024-03-02T01:20:25;8;8;
56069;PMS5003;41944;52.078;-0.058;2024-03-02T01:22:52;7;5;
56069;PMS5003;41944;52.078;-0.058;2024-03-02T01:25:19;7;5;
56069;PMS5003;41944;52.078;-0.058;2024-03-02T01:27:46;4;4;
56069;PMS5003;41944;52.078;-0.058;2024-03-02T01:30:13;8;5;
56069;PMS5003;41944;52.078;-0.058;2024-03-02T01:32:39;4;4;
56069;PMS5003;41944;52.078;-0.058;2024-03-02T01:35:07;6;6;
56069;PMS5003;41944;52.078;-0.058;2024-03-02T01:37:34;3;3;
56069;PMS5003;41944;52.078;-0.058;2024-03-02T01:40:01;3;3;
56069;PMS5003;41944;52.078;-0.058;2024-03-02T01:42:29;3;3;
56069;PMS5003;41944;52.078;-0.058;2024-03-02T01:44:56;5;4;
56069;PMS5003;41944;52.078;-0.058;2024-03-02T01:47:23;5;4;
56069;PMS5003;41944;52.078;-0.058;2024-03-02T01:49:50;2;2;
56069;PMS5003;41944;52.078;-0.058;2024-03-02T01:52:17;3;3;
56069;PMS5003;41944;52.078;-0.058;2024-03-02T01:54:44;2;2;
56069;PMS5003;41944;52.078;-0.058;2024-03-02T01:57:11;2;2;
56069;PMS5003;41944;52.078;-0.058;2024-03-02T01:59:38;5;3;
56069;PMS5003;41944;52.078;-0.058;2024-03-02T02:02:05;1;1;
56069;PMS5003;41944;52.078;-0.058;2024-03-02T02:04:32;4;2;
56069;PMS5003;41944;52.078;-0.058;2024-03-02T02:07:00;3;2;
56069;PMS5003;41944;52.078;-0.058;2024-03-02T02:09:27;3;1;
56069;PMS5003;41944;52.078;-0.058;2024-03-02T02:11:54;4;2;
56069;PMS5003;41944;52.078;-0.058;2024-03-02T02:14:21;1;1;
56069;PMS5003;41944;52.078;-0.058;2024-03-02T02:16:48;1;1;
56069;PMS5003;41944;52.078;-0.058;2024-03-02T02:19:15;3;1;
56069;PMS5003;41944;52.078;-0.058;2024-03-02T02:21:42;1;1;
56069;PMS5003;41944;52.078;-0.058;2024-03-02T02:24:09;1;1;
56069;PMS5003;41944;52.078;-0.058;2024-03-02T02:26:36;3;3;
56069;PMS5003;41944;52.078;-0.058;2024-03-02T02:29:03;3;0;
56069;PMS5003;41944;52.078;-0.058;2024-03-02T02:31:36;2;2;
56069;PMS5003;41944;52.078;-0.058;2024-03-02T02:34:03;0;0;
56069;PMS5003;41944;52.078;-0.058;2024-03-02T02:36:30;2;1;
56069;PMS5003;41944;52.078;-0.058;2024-03-02T02:38:57;3;2;
56069;PMS5003;41944;52.078;-0.058;2024-03-02T02:41:29;1;1;
56069;PMS5003;41944;52.078;-0.058;2024-03-02T02:43:56;2;2;
56069;PMS5003;41944;52.078;-0.058;2024-03-02T02:46:23;3;2;
56069;PMS5003;41944;52.078;-0.058;2024-03-02T02:48:50;1;1;
56069;PMS5003;41944;52.078;-0.058;2024-03-02T02:51:17;2;2;
56069;PMS5003;41944;52.078;-0.058;2024-03-02T02:53:44;6;3;
56069;PMS5003;41944;52.078;-0.058;2024-03-02T02:56:11;2;2;
56069;PMS5003;41944;52.078;-0.058;2024-03-02T02:58:39;2;1;
56069;PMS5003;41944;52.078;-0.058;2024-03-02T03:01:07;3;2;
56069;PMS5003;41944;52.078;-0.058;2024-03-02T03:03:34;7;3;
56069;PMS5003;41944;52.078;-0.058;2024-03-02T03:06:01;4;2;
56069;PMS5003;41944;52.078;-0.058;2024-03-02T03:08:28;3;3;
56069;PMS5003;41944;52.078;-0.058;2024-03-02T03:10:55;2;2;
56069;PMS5003;41944;52.078;-0.058;2024-03-02T03:13:22;5;3;
56069;PMS5003;41944;52.078;-0.058;2024-03-02T03:15:49;3;2;
56069;PMS5003;41944;52.078;-0.058;2024-03-02T03:18:16;2;2;
56069;PMS5003;41944;52.078;-0.058;2024-03-02T03:20:43;4;2;
56069;PMS5003;41944;52.078;-0.058;2024-03-02T03:23:10;3;3;
56069;PMS5003;41944;52.078;-0.058;2024-03-02T03:25:37;4;2;
56069;PMS5003;41944;52.078;-0.058;2024-03-02T03:28:04;6;3;
56069;PMS5003;41944;52.078;-0.058;2024-03-02T03:30:31;5;3;
56069;PMS5003;41944;52.078;-0.058;2024-03-02T03:32:58;2;2;
56069;PMS5003;41944;52.078;-0.058;2024-03-02T03:35:25;2;2;
56069;PMS5003;41944;52.078;-0.058;2024-03-02T03:37:52;4;4;
56069;PMS5003;41944;52.078;-0.058;2024-03-02T03:40:19;3;3;
56069;PMS5003;41944;52.078;-0.058;2024-03-02T03:42:45;6;3;
56069;PMS5003;41944;52.078;-0.058;2024-03-02T03:45:12;3;3;
56069;PMS5003;41944;52.078;-0.058;2024-03-02T03:47:39;6;5;
56069;PMS5003;41944;52.078;-0.058;2024-03-02T03:50:06;4;4;
56069;PMS5003;41944;52.078;-0.058;2024-03-02T03:52:34;7;4;
56069;PMS5003;41944;52.078;-0.058;2024-03-02T03:55:01;5;4;
56069;PMS5003;41944;52.078;-0.058;2024-03-02T03:57:29;4;4;
56069;PMS5003;41944;52.078;-0.058;2024-03-02T03:59:56;5;4;
56069;PMS5003;41944;52.078;-0.058;2024-03-02T04:02:23;5;4;
56069;PMS5003;41944;52.078;-0.058;2024-03-02T04:04:49;4;4;
56069;PMS5003;41944;52.078;-0.058;2024-03-02T04:07:16;7;6;
56069;PMS5003;41944;52.078;-0.058;2024-03-02T04:09:43;4;4;
56069;PMS5003;41944;52.078;-0.058;2024-03-02T04:12:10;3;3;
56069;PMS5003;41944;52.078;-0.058;2024-03-02T04:14:37;2;2;
56069;PMS5003;41944;52.078;-0.058;2024-03-02T04:17:04;2;2;
56069;PMS5003;41944;52.078;-0.058;2024-03-02T04:19:31;3;2;
56069;PMS5003;41944;52.078;-0.058;2024-03-02T04:21:58;2;1;
56069;PMS5003;41944;52.078;-0.058;2024-03-02T04:24:25;3;1;
56069;PMS5003;41944;52.078;-0.058;2024-03-02T04:26:52;5;4;
56069;PMS5003;41944;52.078;-0.058;2024-03-02T04:29:19;2;2;
56069;PMS5003;41944;52.078;-0.058;2024-03-02T04:31:46;4;0;
56069;PMS5003;41944;52.078;-0.058;2024-03-02T04:34:13;6;3;
56069;PMS5003;41944;52.078;-0.058;2024-03-02T04:36:40;0;0;
56069;PMS5003;41944;52.078;-0.058;2024-03-02T04:39:07;4;2;
56069;PMS5003;41944;52.078;-0.058;2024-03-02T04:41:34;2;2;
56069;PMS5003;41944;52.078;-0.058;2024-03-02T04:44:01;4;4;
56069;PMS5003;41944;52.078;-0.058;2024-03-02T04:46:28;2;2;
56069;PMS5003;41944;52.078;-0.058;2024-03-02T04:48:55;2;2;
56069;PMS5003;41944;52.078;-0.058;2024-03-02T04:51:22;4;3;
56069;PMS5003;41944;52.078;-0.058;2024-03-02T04:53:49;6;3;
56069;PMS5003;41944;52.078;-0.058;2024-03-02T04:56:16;2;1;
56069;PMS5003;41944;52.078;-0.058;2024-03-02T04:58:43;3;2;
56069;PMS5003;41944;52.078;-0.058;2024-03-02T05:01:10;5;2;
56069;PMS5003;41944;52.078;-0.058;2024-03-02T05:03:37;2;1;
56069;PMS5003;41944;52.078;-0.058;2024-03-02T05:06:04;8;2;
56069;PMS5003;41944;52.078;-0.058;2024-03-02T05:08:31;4;3;
56069;PMS5003;41944;52.078;-0.058;2024-03-02T05:10:58;2;2;
56069;PMS5003;41944;52.078;-0.058;2024-03-02T05:13:25;5;3;
56069;PMS5003;41944;52.078;-0.058;2024-03-02T05:15:52;2;2;
56069;PMS5003;41944;52.078;-0.058;2024-03-02T05:18:19;5;1;
56069;PMS5003;41944;52.078;-0.058;2024-03-02T05:20:46;6;2;
56069;PMS5003;41944;52.078;-0.058;2024-03-02T05:23:13;2;1;
56069;PMS5003;41944;52.078;-0.058;2024-03-02T05:25:40;3;1;
56069;PMS5003;41944;52.078;-0.058;2024-03-02T05:28:06;3;0;
56069;PMS5003;41944;52.078;-0.058;2024-03-02T05:30:33;1;1;
56069;PMS5003;41944;52.078;-0.058;2024-03-02T05:33:01;4;1;
56069;PMS5003;41944;52.078;-0.058;2024-03-02T05:35:28;4;2;
56069;PMS5003;41944;52.078;-0.058;2024-03-02T05:37:55;4;1;
56069;PMS5003;41944;52.078;-0.058;2024-03-02T05:40:22;5;2;
56069;PMS5003;41944;52.078;-0.058;2024-03-02T05:42:49;5;2;
56069;PMS5003;41944;52.078;-0.058;2024-03-02T05:45:16;6;3;
56069;PMS5003;41944;52.078;-0.058;2024-03-02T05:47:43;3;3;
56069;PMS5003;41944;52.078;-0.058;2024-03-02T05:50:10;0;0;
56069;PMS5003;41944;52.078;-0.058;2024-03-02T05:52:37;5;2;
56069;PMS5003;41944;52.078;-0.058;2024-03-02T05:55:04;5;2;
56069;PMS5003;41944;52.078;-0.058;2024-03-02T05:57:31;11;3;
56069;PMS5003;41944;52.078;-0.058;2024-03-02T05:59:58;3;2;
56069;PMS5003;41944;52.078;-0.058;2024-03-02T06:02:25;4;1;
56069;PMS5003;41944;52.078;-0.058;2024-03-02T06:04:53;3;1;
56069;PMS5003;41944;52.078;-0.058;2024-03-02T06:07:22;2;2;
56069;PMS5003;41944;52.078;-0.058;2024-03-02T06:09:49;5;2;
56069;PMS5003;41944;52.078;-0.058;2024-03-02T06:12:16;3;2;
56069;PMS5003;41944;52.078;-0.058;2024-03-02T06:14:43;2;2;
56069;PMS5003;41944;52.078;-0.058;2024-03-02T06:17:10;3;2;
56069;PMS5003;41944;52.078;-0.058;2024-03-02T06:19:37;5;0;
56069;PMS5003;41944;52.078;-0.058;2024-03-02T06:22:04;4;2;
56069;PMS5003;41944;52.078;-0.058;2024-03-02T06:24:30;4;3;
56069;PMS5003;41944;52.078;-0.058;2024-03-02T06:26:57;1;1;
56069;PMS5003;41944;52.078;-0.058;2024-03-02T06:29:24;4;2;
56069;PMS5003;41944;52.078;-0.058;2024-03-02T06:31:51;4;3;
56069;PMS5003;41944;52.078;-0.058;2024-03-02T06:34:18;3;2;
56069;PMS5003;41944;52.078;-0.058;2024-03-02T06:36:45;6;3;
56069;PMS5003;41944;52.078;-0.058;2024-03-02T06:39:12;3;2;
56069;PMS5003;41944;52.078;-0.058;2024-03-02T06:41:39;2;2;
56069;PMS5003;41944;52.078;-0.058;2024-03-02T06:44:06;5;1;
56069;PMS5003;41944;52.078;-0.058;2024-03-02T06:46:33;4;2;
56069;PMS5003;41944;52.078;-0.058;2024-03-02T06:49:00;5;3;
56069;PMS5003;41944;52.078;-0.058;2024-03-02T06:51:28;3;2;
56069;PMS5003;41944;52.078;-0.058;2024-03-02T06:53:55;6;2;
56069;PMS5003;41944;52.078;-0.058;2024-03-02T06:56:22;3;2;
56069;PMS5003;41944;52.078;-0.058;2024-03-02T06:58:49;4;2;
56069;PMS5003;41944;52.078;-0.058;2024-03-02T07:01:15;7;4;
56069;PMS5003;41944;52.078;-0.058;2024-03-02T07:03:42;8;4;
56069;PMS5003;41944;52.078;-0.058;2024-03-02T07:06:09;4;4;
56069;PMS5003;41944;52.078;-0.058;2024-03-02T07:08:36;4;2;
56069;PMS5003;41944;52.078;-0.058;2024-03-02T07:11:03;8;5;
56069;PMS5003;41944;52.078;-0.058;2024-03-02T07:13:30;8;6;
56069;PMS5003;41944;52.078;-0.058;2024-03-02T07:15:57;7;2;
56069;PMS5003;41944;52.078;-0.058;2024-03-02T07:18:24;6;2;
56069;PMS5003;41944;52.078;-0.058;2024-03-02T07:20:51;7;3;
56069;PMS5003;41944;52.078;-0.058;2024-03-02T07:23:18;6;4;
56069;PMS5003;41944;52.078;-0.058;2024-03-02T07:25:45;6;2;
56069;PMS5003;41944;52.078;-0.058;2024-03-02T07:28:12;8;3;
56069;PMS5003;41944;52.078;-0.058;2024-03-02T07:30:39;7;4;
56069;PMS5003;41944;52.078;-0.058;2024-03-02T07:33:06;5;3;
56069;PMS5003;41944;52.078;-0.058;2024-03-02T07:35:33;4;1;
56069;PMS5003;41944;52.078;-0.058;2024-03-02T07:38:00;6;2;
56069;PMS5003;41944;52.078;-0.058;2024-03-02T07:40:27;4;2;
56069;PMS5003;41944;52.078;-0.058;2024-03-02T07:42:54;6;3;
56069;PMS5003;41944;52.078;-0.058;2024-03-02T07:45:21;7;4;
56069;PMS5003;41944;52.078;-0.058;2024-03-02T07:47:48;5;4;
56069;PMS5003;41944;52.078;-0.058;2024-03-02T07:50:15;3;3;
56069;PMS5003;41944;52.078;-0.058;2024-03-02T07:52:42;4;3;
56069;PMS5003;41944;52.078;-0.058;2024-03-02T07:55:09;6;3;
56069;PMS5003;41944;52.078;-0.058;2024-03-02T07:57:36;7;3;
56069;PMS5003;41944;52.078;-0.058;2024-03-02T08:00:03;4;3;
56069;PMS5003;41944;52.078;-0.058;2024-03-02T08:02:31;5;3;
56069;PMS5003;41944;52.078;-0.058;2024-03-02T08:04:58;4;2;
56069;PMS5003;41944;52.078;-0.058;2024-03-02T08:07:25;3;2;
56069;PMS5003;41944;52.078;-0.058;2024-03-02T08:09:52;5;3;
56069;PMS5003;41944;52.078;-0.058;2024-03-02T08:12:19;4;3;
56069;PMS5003;41944;52.078;-0.058;2024-03-02T08:14:46;7;3;
56069;PMS5003;41944;52.078;-0.058;2024-03-02T08:17:13;3;3;
56069;PMS5003;41944;52.078;-0.058;2024-03-02T08:19:40;2;2;
56069;PMS5003;41944;52.078;-0.058;2024-03-02T08:22:07;4;1;
56069;PMS5003;41944;52.078;-0.058;2024-03-02T08:24:34;4;1;
56069;PMS5003;41944;52.078;-0.058;2024-03-02T08:27:01;3;1;
56069;PMS5003;41944;52.078;-0.058;2024-03-02T08:29:29;3;2;
56069;PMS5003;41944;52.078;-0.058;2024-03-02T08:31:56;1;1;
56069;PMS5003;41944;52.078;-0.058;2024-03-02T08:34:22;5;2;
56069;PMS5003;41944;52.078;-0.058;2024-03-02T08:36:49;4;1;
56069;PMS5003;41944;52.078;-0.058;2024-03-02T08:39:16;4;1;
56069;PMS5003;41944;52.078;-0.058;2024-03-02T08:41:44;5;3;
56069;PMS5003;41944;52.078;-0.058;2024-03-02T08:44:12;2;2;
56069;PMS5003;41944;52.078;-0.058;2024-03-02T08:46:40;1;1;
56069;PMS5003;41944;52.078;-0.058;2024-03-02T08:49:07;5;2;
56069;PMS5003;41944;52.078;-0.058;2024-03-02T08:51:34;2;1;
56069;PMS5003;41944;52.078;-0.058;2024-03-02T08:54:01;4;3;
56069;PMS5003;41944;52.078;-0.058;2024-03-02T08:56:29;4;1;
56069;PMS5003;41944;52.078;-0.058;2024-03-02T08:58:57;3;1;
56069;PMS5003;41944;52.078;-0.058;2024-03-02T09:01:25;3;2;
56069;PMS5003;41944;52.078;-0.058;2024-03-02T09:03:52;2;0;
56069;PMS5003;41944;52.078;-0.058;2024-03-02T09:06:18;0;0;
56069;PMS5003;41944;52.078;-0.058;2024-03-02T09:08:45;1;1;
56069;PMS5003;41944;52.078;-0.058;2024-03-02T09:11:12;3;0;
56069;PMS5003;41944;52.078;-0.058;2024-03-02T09:13:39;2;2;
56069;PMS5003;41944;52.078;-0.058;2024-03-02T09:16:06;2;1;
56069;PMS5003;41944;52.078;-0.058;2024-03-02T09:18:33;4;4;
56069;PMS5003;41944;52.078;-0.058;2024-03-02T09:21:00;2;0;
56069;PMS5003;41944;52.078;-0.058;2024-03-02T09:23:28;3;1;
56069;PMS5003;41944;52.078;-0.058;2024-03-02T09:25:55;6;3;
56069;PMS5003;41944;52.078;-0.058;2024-03-02T09:28:21;6;3;
56069;PMS5003;41944;52.078;-0.058;2024-03-02T09:30:49;7;4;
56069;PMS5003;41944;52.078;-0.058;2024-03-02T09:33:16;9;7;
56069;PMS5003;41944;52.078;-0.058;2024-03-02T09:35:42;11;7;
56069;PMS5003;41944;52.078;-0.058;2024-03-02T09:38:09;4;4;
56069;PMS5003;41944;52.078;-0.058;2024-03-02T09:40:36;8;4;
56069;PMS5003;41944;52.078;-0.058;2024-03-02T09:43:03;16;8;
56069;PMS5003;41944;52.078;-0.058;2024-03-02T09:45:31;15;12;
56069;PMS5003;41944;52.078;-0.058;2024-03-02T09:47:58;11;8;
56069;PMS5003;41944;52.078;-0.058;2024-03-02T09:50:25;25;18;
56069;PMS5003;41944;52.078;-0.058;2024-03-02T09:52:52;11;6;
56069;PMS5003;41944;52.078;-0.058;2024-03-02T09:55:20;5;2;
56069;PMS5003;41944;52.078;-0.058;2024-03-02T09:57:47;5;5;
56069;PMS5003;41944;52.078;-0.058;2024-03-02T10:00:14;5;5;
56069;PMS5003;41944;52.078;-0.058;2024-03-02T10:02:41;2;1;
56069;PMS5003;41944;52.078;-0.058;2024-03-02T10:05:09;3;3;
56069;PMS5003;41944;52.078;-0.058;2024-03-02T10:07:36;2;2;
56069;PMS5003;41944;52.078;-0.058;2024-03-02T10:10:12;38;29;
56069;PMS5003;41944;52.078;-0.058;2024-03-02T10:12:40;2;1;
56069;PMS5003;41944;52.078;-0.058;2024-03-02T10:15:08;1;1;
56069;PMS5003;41944;52.078;-0.058;2024-03-02T10:17:35;11;8;
56069;PMS5003;41944;52.078;-0.058;2024-03-02T10:20:21;4;4;
56069;PMS5003;41944;52.078;-0.058;2024-03-02T10:22:48;2;2;
56069;PMS5003;41944;52.078;-0.058;2024-03-02T10:25:28;8;7;
56069;PMS5003;41944;52.078;-0.058;2024-03-02T10:27:56;6;3;
56069;PMS5003;41944;52.078;-0.058;2024-03-02T10:30:24;11;10;
56069;PMS5003;41944;52.078;-0.058;2024-03-02T10:32:51;3;2;
56069;PMS5003;41944;52.078;-0.058;2024-03-02T10:35:20;1;1;
56069;PMS5003;41944;52.078;-0.058;2024-03-02T10:37:47;1;1;
56069;PMS5003;41944;52.078;-0.058;2024-03-02T10:40:14;2;2;
56069;PMS5003;41944;52.078;-0.058;2024-03-02T10:42:42;2;1;
56069;PMS5003;41944;52.078;-0.058;2024-03-02T10:45:11;7;5;
56069;PMS5003;41944;52.078;-0.058;2024-03-02T10:47:41;2;2;
56069;PMS5003;41944;52.078;-0.058;2024-03-02T10:50:09;3;2;
56069;PMS5003;41944;52.078;-0.058;2024-03-02T10:52:36;2;2;
56069;PMS5003;41944;52.078;-0.058;2024-03-02T10:55:03;5;3;
56069;PMS5003;41944;52.078;-0.058;2024-03-02T10:57:32;3;3;
56069;PMS5003;41944;52.078;-0.058;2024-03-02T11:00:08;4;2;
56069;PMS5003;41944;52.078;-0.058;2024-03-02T11:02:39;1;1;
56069;PMS5003;41944;52.078;-0.058;2024-03-02T11:05:08;0;0;
56069;PMS5003;41944;52.078;-0.058;2024-03-02T11:07:39;2;2;
56069;PMS5003;41944;52.078;-0.058;2024-03-02T11:10:07;0;0;
56069;PMS5003;41944;52.078;-0.058;2024-03-02T11:12:36;1;1;
56069;PMS5003;41944;52.078;-0.058;2024-03-02T11:15:10;0;0;
56069;PMS5003;41944;52.078;-0.058;2024-03-02T11:17:44;0;0;
56069;PMS5003;41944;52.078;-0.058;2024-03-02T11:20:11;1;1;
56069;PMS5003;41944;52.078;-0.058;2024-03-02T11:22:39;1;0;
56069;PMS5003;41944;52.078;-0.058;2024-03-02T11:25:06;1;1;
56069;PMS5003;41944;52.078;-0.058;2024-03-02T11:28:06;1;1;
56069;PMS5003;41944;52.078;-0.058;2024-03-02T11:31:05;0;0;
56069;PMS5003;41944;52.078;-0.058;2024-03-02T11:33:32;0;0;
56069;PMS5003;41944;52.078;-0.058;2024-03-02T11:35:58;0;0;
56069;PMS5003;41944;52.078;-0.058;2024-03-02T11:38:28;0;0;
56069;PMS5003;41944;52.078;-0.058;2024-03-02T11:40:57;0;0;
56069;PMS5003;41944;52.078;-0.058;2024-03-02T11:43:25;0;0;
56069;PMS5003;41944;52.078;-0.058;2024-03-02T11:45:58;1;1;
56069;PMS5003;41944;52.078;-0.058;2024-03-02T11:48:26;0;0;
56069;PMS5003;41944;52.078;-0.058;2024-03-02T11:50:53;1;1;
56069;PMS5003;41944;52.078;-0.058;2024-03-02T11:53:24;0;0;
56069;PMS5003;41944;52.078;-0.058;2024-03-02T11:55:54;0;0;
56069;PMS5003;41944;52.078;-0.058;2024-03-02T11:58:22;1;1;
56069;PMS5003;41944;52.078;-0.058;2024-03-02T12:00:50;1;1;
56069;PMS5003;41944;52.078;-0.058;2024-03-02T12:03:18;3;1;
56069;PMS5003;41944;52.078;-0.058;2024-03-02T12:05:48;1;1;
56069;PMS5003;41944;52.078;-0.058;2024-03-02T12:08:16;0;0;
56069;PMS5003;41944;52.078;-0.058;2024-03-02T12:10:43;1;1;
56069;PMS5003;41944;52.078;-0.058;2024-03-02T12:13:22;3;1;
56069;PMS5003;41944;52.078;-0.058;2024-03-02T12:15:52;28;12;
56069;PMS5003;41944;52.078;-0.058;2024-03-02T12:18:20;32;17;
56069;PMS5003;41944;52.078;-0.058;2024-03-02T12:20:48;50;26;
56069;PMS5003;41944;52.078;-0.058;2024-03-02T12:23:16;35;20;
56069;PMS5003;41944;52.078;-0.058;2024-03-02T12:25:44;7;4;
56069;PMS5003;41944;52.078;-0.058;2024-03-02T12:28:11;8;1;
56069;PMS5003;41944;52.078;-0.058;2024-03-02T12:30:38;3;2;
56069;PMS5003;41944;52.078;-0.058;2024-03-02T12:33:05;2;1;
56069;PMS5003;41944;52.078;-0.058;2024-03-02T12:35:32;5;1;
56069;PMS5003;41944;52.078;-0.058;2024-03-02T12:37:59;2;2;
56069;PMS5003;41944;52.078;-0.058;2024-03-02T12:40:26;1;0;
56069;PMS5003;41944;52.078;-0.058;2024-03-02T12:42:53;4;2;
56069;PMS5003;41944;52.078;-0.058;2024-03-02T12:45:20;2;1;
56069;PMS5003;41944;52.078;-0.058;2024-03-02T12:47:47;3;2;
56069;PMS5003;41944;52.078;-0.058;2024-03-02T12:50:14;2;1;
56069;PMS5003;41944;52.078;-0.058;2024-03-02T12:52:42;1;1;
56069;PMS5003;41944;52.078;-0.058;2024-03-02T12:55:09;3;3;
56069;PMS5003;41944;52.078;-0.058;2024-03-02T12:57:36;1;1;
56069;PMS5003;41944;52.078;-0.058;2024-03-02T13:00:04;2;2;
56069;PMS5003;41944;52.078;-0.058;2024-03-02T13:02:31;4;2;
56069;PMS5003;41944;52.078;-0.058;2024-03-02T13:04:58;1;1;
56069;PMS5003;41944;52.078;-0.058;2024-03-02T13:07:25;2;2;
56069;PMS5003;41944;52.078;-0.058;2024-03-02T13:09:52;0;0;
56069;PMS5003;41944;52.078;-0.058;2024-03-02T13:12:21;0;0;
56069;PMS5003;41944;52.078;-0.058;2024-03-02T13:14:50;0;0;
56069;PMS5003;41944;52.078;-0.058;2024-03-02T13:17:18;1;1;
56069;PMS5003;41944;52.078;-0.058;2024-03-02T13:19:53;1;1;
56069;PMS5003;41944;52.078;-0.058;2024-03-02T13:22:21;2;0;
56069;PMS5003;41944;52.078;-0.058;2024-03-02T13:24:49;2;2;
56069;PMS5003;41944;52.078;-0.058;2024-03-02T13:27:16;2;2;
56069;PMS5003;41944;52.078;-0.058;2024-03-02T13:29:43;1;1;
56069;PMS5003;41944;52.078;-0.058;2024-03-02T13:32:10;3;1;
56069;PMS5003;41944;52.078;-0.058;2024-03-02T13:34:37;1;0;
56069;PMS5003;41944;52.078;-0.058;2024-03-02T13:37:04;1;1;
56069;PMS5003;41944;52.078;-0.058;2024-03-02T13:39:31;0;0;
56069;PMS5003;41944;52.078;-0.058;2024-03-02T13:41:58;1;1;
56069;PMS5003;41944;52.078;-0.058;2024-03-02T13:44:25;0;0;
56069;PMS5003;41944;52.078;-0.058;2024-03-02T13:46:52;1;1;
56069;PMS5003;41944;52.078;-0.058;2024-03-02T13:49:19;1;1;
56069;PMS5003;41944;52.078;-0.058;2024-03-02T13:51:47;0;0;
56069;PMS5003;41944;52.078;-0.058;2024-03-02T13:54:13;0;0;
56069;PMS5003;41944;52.078;-0.058;2024-03-02T13:56:40;0;0;
56069;PMS5003;41944;52.078;-0.058;2024-03-02T13:59:07;0;0;
56069;PMS5003;41944;52.078;-0.058;2024-03-02T14:01:35;2;0;
56069;PMS5003;41944;52.078;-0.058;2024-03-02T14:04:02;3;1;
56069;PMS5003;41944;52.078;-0.058;2024-03-02T14:06:29;0;0;
56069;PMS5003;41944;52.078;-0.058;2024-03-02T14:08:56;1;1;
56069;PMS5003;41944;52.078;-0.058;2024-03-02T14:11:23;1;1;
56069;PMS5003;41944;52.078;-0.058;2024-03-02T14:13:50;1;1;
56069;PMS5003;41944;52.078;-0.058;2024-03-02T14:16:17;0;0;
56069;PMS5003;41944;52.078;-0.058;2024-03-02T14:18:44;1;1;
56069;PMS5003;41944;52.078;-0.058;2024-03-02T14:21:11;0;0;
56069;PMS5003;41944;52.078;-0.058;2024-03-02T14:23:38;1;1;
56069;PMS5003;41944;52.078;-0.058;2024-03-02T14:26:05;0;0;
56069;PMS5003;41944;52.078;-0.058;2024-03-02T14:28:31;1;1;
56069;PMS5003;41944;52.078;-0.058;2024-03-02T14:30:58;0;0;
56069;PMS5003;41944;52.078;-0.058;2024-03-02T14:33:25;1;0;
56069;PMS5003;41944;52.078;-0.058;2024-03-02T14:35:52;0;0;
56069;PMS5003;41944;52.078;-0.058;2024-03-02T14:38:19;1;1;
56069;PMS5003;41944;52.078;-0.058;2024-03-02T14:40:46;0;0;
56069;PMS5003;41944;52.078;-0.058;2024-03-02T14:43:14;0;0;
56069;PMS5003;41944;52.078;-0.058;2024-03-02T14:45:41;1;1;
56069;PMS5003;41944;52.078;-0.058;2024-03-02T14:48:09;1;1;
56069;PMS5003;41944;52.078;-0.058;2024-03-02T14:50:36;1;1;
56069;PMS5003;41944;52.078;-0.058;2024-03-02T14:53:03;2;2;
56069;PMS5003;41944;52.078;-0.058;2024-03-02T14:55:30;3;2;
56069;PMS5003;41944;52.078;-0.058;2024-03-02T14:57:57;2;1;
56069;PMS5003;41944;52.078;-0.058;2024-03-02T15:00:24;0;0;
56069;PMS5003;41944;52.078;-0.058;2024-03-02T15:02:51;1;1;
56069;PMS5003;41944;52.078;-0.058;2024-03-02T15:05:18;0;0;
56069;PMS5003;41944;52.078;-0.058;2024-03-02T15:07:44;0;0;
56069;PMS5003;41944;52.078;-0.058;2024-03-02T15:10:11;0;0;
56069;PMS5003;41944;52.078;-0.058;2024-03-02T15:12:38;0;0;
56069;PMS5003;41944;52.078;-0.058;2024-03-02T15:15:05;1;1;
56069;PMS5003;41944;52.078;-0.058;2024-03-02T15:17:33;0;0;
56069;PMS5003;41944;52.078;-0.058;2024-03-02T15:20:00;1;1;
56069;PMS5003;41944;52.078;-0.058;2024-03-02T15:22:28;1;1;
56069;PMS5003;41944;52.078;-0.058;2024-03-02T15:24:54;0;0;
56069;PMS5003;41944;52.078;-0.058;2024-03-02T15:27:21;1;1;
56069;PMS5003;41944;52.078;-0.058;2024-03-02T15:29:48;2;0;
56069;PMS5003;41944;52.078;-0.058;2024-03-02T15:32:15;2;1;
56069;PMS5003;41944;52.078;-0.058;2024-03-02T15:34:42;1;1;
56069;PMS5003;41944;52.078;-0.058;2024-03-02T15:37:09;1;1;
56069;PMS5003;41944;52.078;-0.058;2024-03-02T15:39:36;0;0;
56069;PMS5003;41944;52.078;-0.058;2024-03-02T15:42:03;0;0;
56069;PMS5003;41944;52.078;-0.058;2024-03-02T15:44:30;1;1;
56069;PMS5003;41944;52.078;-0.058;2024-03-02T15:46:57;2;2;
56069;PMS5003;41944;52.078;-0.058;2024-03-02T15:49:24;1;0;
56069;PMS5003;41944;52.078;-0.058;2024-03-02T15:51:51;1;0;
56069;PMS5003;41944;52.078;-0.058;2024-03-02T15:54:18;1;1;
56069;PMS5003;41944;52.078;-0.058;2024-03-02T15:56:45;0;0;
56069;PMS5003;41944;52.078;-0.058;2024-03-02T15:59:12;1;1;
56069;PMS5003;41944;52.078;-0.058;2024-03-02T16:01:39;0;0;
56069;PMS5003;41944;52.078;-0.058;2024-03-02T16:04:06;1;1;
56069;PMS5003;41944;52.078;-0.058;2024-03-02T16:06:33;1;1;
56069;PMS5003;41944;52.078;-0.058;2024-03-02T16:08:59;1;1;
56069;PMS5003;41944;52.078;-0.058;2024-03-02T16:11:27;2;2;
56069;PMS5003;41944;52.078;-0.058;2024-03-02T16:13:53;1;0;
56069;PMS5003;41944;52.078;-0.058;2024-03-02T16:16:20;0;0;
56069;PMS5003;41944;52.078;-0.058;2024-03-02T16:18:47;2;1;
56069;PMS5003;41944;52.078;-0.058;2024-03-02T16:21:14;2;2;
56069;PMS5003;41944;52.078;-0.058;2024-03-02T16:23:41;3;3;
56069;PMS5003;41944;52.078;-0.058;2024-03-02T16:26:08;1;0;
56069;PMS5003;41944;52.078;-0.058;2024-03-02T16:28:35;0;0;
56069;PMS5003;41944;52.078;-0.058;2024-03-02T16:31:02;0;0;
56069;PMS5003;41944;52.078;-0.058;2024-03-02T16:33:29;2;1;
56069;PMS5003;41944;52.078;-0.058;2024-03-02T16:35:56;1;1;